sensor_id;sensor_type;location;lat;lon;timestamp;temperature;humidity
16172;DHT22;8192;53.596;10.166;2024-02-28T00:00:29;3.90;99.90
16172;DHT22;8192;53.596;10.166;2024-02-28T00:02:58;3.90;99.90
16172;DHT22;8192;53.596;10.166;2024-02-28T00:05:25;3.90;99.90
16172;DHT22;8192;53.596;10.166;2024-02-28T00:07:52;3.90;99.90
16172;DHT22;8192;53.596;10.166;2024-02-28T00:10:19;4.10;99.90
16172;DHT22;8192;53.596;10.166;2024-02-28T00:12:46;4.20;99.90
16172;DHT22;8192;53.596;10.166;2024-02-28T00:15:13;4.20;99.90
16172;DHT22;8192;53.596;10.166;2024-02-28T00:17:39;4.40;99.90
16172;DHT22;8192;53.596;10.166;2024-02-28T00:20:10;4.30;99.90
16172;DHT22;8192;53.596;10.166;2024-02-28T00:22:37;4.30;99.90
16172;DHT22;8192;53.596;10.166;2024-02-28T00:25:04;4.10;99.90
16172;DHT22;8192;53.596;10.166;2024-02-28T00:27:32;4.10;99.90
16172;DHT22;8192;53.596;10.166;2024-02-28T00:29:59;4.10;99.90
16172;DHT22;8192;53.596;10.166;2024-02-28T00:32:26;3.90;99.90
16172;DHT22;8192;53.596;10.166;2024-02-28T00:34:52;3.80;99.90
16172;DHT22;8192;53.596;10.166;2024-02-28T00:37:21;4.00;99.90
16172;DHT22;8192;53.596;10.166;2024-02-28T00:39:49;4.10;99.90
16172;DHT22;8192;53.596;10.166;2024-02-28T00:42:16;4.00;99.90
16172;DHT22;8192;53.596;10.166;2024-02-28T00:44:43;3.80;99.90
16172;DHT22;8192;53.596;10.166;2024-02-28T00:47:10;3.70;99.90
16172;DHT22;8192;53.596;10.166;2024-02-28T00:49:37;3.60;99.90
16172;DHT22;8192;53.596;10.166;2024-02-28T00:52:04;3.40;99.90
16172;DHT22;8192;53.596;10.166;2024-02-28T00:54:33;3.50;99.90
16172;DHT22;8192;53.596;10.166;2024-02-28T00:57:00;3.50;99.90
16172;DHT22;8192;53.596;10.166;2024-02-28T00:59:26;3.60;99.90
16172;DHT22;8192;53.596;10.166;2024-02-28T01:01:53;3.60;99.90
16172;DHT22;8192;53.596;10.166;2024-02-28T01:04:20;3.60;99.90
16172;DHT22;8192;53.596;10.166;2024-02-28T01:06:47;3.60;99.90
16172;DHT22;8192;53.596;10.166;2024-02-28T01:09:14;3.60;99.90
16172;DHT22;8192;53.596;10.166;2024-02-28T01:11:42;3.50;99.90
16172;DHT22;8192;53.596;10.166;2024-02-28T01:14:09;3.50;99.90
16172;DHT22;8192;53.596;10.166;2024-02-28T01:16:37;3.50;99.90
16172;DHT22;8192;53.596;10.166;2024-02-28T01:19:04;3.30;99.90
16172;DHT22;8192;53.596;10.166;2024-02-28T01:21:31;3.30;99.90
16172;DHT22;8192;53.596;10.166;2024-02-28T01:23:57;3.40;99.90
16172;DHT22;8192;53.596;10.166;2024-02-28T01:26:24;3.40;99.90
16172;DHT22;8192;53.596;10.166;2024-02-28T01:28:52;3.50;99.90
16172;DHT22;8192;53.596;10.166;2024-02-28T01:31:19;3.30;99.90
16172;DHT22;8192;53.596;10.166;2024-02-28T01:33:46;3.50;99.90
16172;DHT22;8192;53.596;10.166;2024-02-28T01:36:13;3.40;99.90
16172;DHT22;8192;53.596;10.166;2024-02-28T01:38:40;3.30;99.90
16172;DHT22;8192;53.596;10.166;2024-02-28T01:41:07;3.30;99.90
16172;DHT22;8192;53.596;10.166;2024-02-28T01:43:34;3.60;99.90
16172;DHT22;8192;53.596;10.166;2024-02-28T01:46:06;3.70;99.90
16172;DHT22;8192;53.596;10.166;2024-02-28T01:48:36;3.70;99.90
16172;DHT22;8192;53.596;10.166;2024-02-28T01:51:04;3.70;99.90
16172;DHT22;8192;53.596;10.166;2024-02-28T01:53:32;3.60;99.90
16172;DHT22;8192;53.596;10.166;2024-02-28T01:55:59;3.50;99.90
16172;DHT22;8192;53.596;10.166;2024-02-28T01:58:26;3.40;99.90
16172;DHT22;8192;53.596;10.166;2024-02-28T02:00:53;3.30;99.90
16172;DHT22;8192;53.596;10.166;2024-02-28T02:03:22;3.30;99.90
16172;DHT22;8192;53.596;10.166;2024-02-28T02:05:49;3.40;99.90
16172;DHT22;8192;53.596;10.166;2024-02-28T02:08:16;3.40;99.90
16172;DHT22;8192;53.596;10.166;2024-02-28T02:10:42;3.40;99.90
16172;DHT22;8192;53.596;10.166;2024-02-28T02:13:09;3.50;99.90
16172;DHT22;8192;53.596;10.166;2024-02-28T02:15:36;3.50;99.90
16172;DHT22;8192;53.596;10.166;2024-02-28T02:18:04;3.30;99.90
16172;DHT22;8192;53.596;10.166;2024-02-28T02:20:38;3.20;99.90
16172;DHT22;8192;53.596;10.166;2024-02-28T02:23:10;3.40;99.90
16172;DHT22;8192;53.596;10.166;2024-02-28T02:25:43;3.40;99.90
16172;DHT22;8192;53.596;10.166;2024-02-28T02:28:10;3.30;99.90
16172;DHT22;8192;53.596;10.166;2024-02-28T02:30:38;3.20;99.90
16172;DHT22;8192;53.596;10.166;2024-02-28T02:33:05;3.20;99.90
16172;DHT22;8192;53.596;10.166;2024-02-28T02:35:32;3.20;99.90
16172;DHT22;8192;53.596;10.166;2024-02-28T02:38:09;3.20;99.90
16172;DHT22;8192;53.596;10.166;2024-02-28T02:40:36;3.30;99.90
16172;DHT22;8192;53.596;10.166;2024-02-28T02:43:03;3.30;99.90
16172;DHT22;8192;53.596;10.166;2024-02-28T02:45:30;3.10;99.90
16172;DHT22;8192;53.596;10.166;2024-02-28T02:47:56;3.10;99.90
16172;DHT22;8192;53.596;10.166;2024-02-28T02:50:23;3.10;99.90
16172;DHT22;8192;53.596;10.166;2024-02-28T02:52:50;3.10;99.90
16172;DHT22;8192;53.596;10.166;2024-02-28T02:55:18;3.10;99.90
16172;DHT22;8192;53.596;10.166;2024-02-28T02:57:45;3.30;99.90
16172;DHT22;8192;53.596;10.166;2024-02-28T03:00:13;3.20;99.90
16172;DHT22;8192;53.596;10.166;2024-02-28T03:02:40;3.20;99.90
16172;DHT22;8192;53.596;10.166;2024-02-28T03:05:07;3.20;99.90
16172;DHT22;8192;53.596;10.166;2024-02-28T03:07:34;3.40;99.90
16172;DHT22;8192;53.596;10.166;2024-02-28T03:10:01;3.50;99.90
16172;DHT22;8192;53.596;10.166;2024-02-28T03:12:30;3.50;99.90
16172;DHT22;8192;53.596;10.166;2024-02-28T03:14:57;3.50;99.90
16172;DHT22;8192;53.596;10.166;2024-02-28T03:17:24;3.40;99.90
16172;DHT22;8192;53.596;10.166;2024-02-28T03:19:50;3.40;99.90
16172;DHT22;8192;53.596;10.166;2024-02-28T03:22:17;3.40;99.90
16172;DHT22;8192;53.596;10.166;2024-02-28T03:24:44;3.50;99.90
16172;DHT22;8192;53.596;10.166;2024-02-28T03:27:11;3.50;99.90
16172;DHT22;8192;53.596;10.166;2024-02-28T03:29:39;3.40;99.90
16172;DHT22;8192;53.596;10.166;2024-02-28T03:32:08;3.30;99.90
16172;DHT22;8192;53.596;10.166;2024-02-28T03:34:35;3.30;99.90
16172;DHT22;8192;53.596;10.166;2024-02-28T03:37:02;3.20;99.90
16172;DHT22;8192;53.596;10.166;2024-02-28T03:39:28;3.10;99.90
16172;DHT22;8192;53.596;10.166;2024-02-28T03:41:55;3.00;99.90
16172;DHT22;8192;53.596;10.166;2024-02-28T03:44:22;3.10;99.90
16172;DHT22;8192;53.596;10.166;2024-02-28T03:46:52;3.00;99.90
16172;DHT22;8192;53.596;10.166;2024-02-28T03:49:19;3.10;99.90
16172;DHT22;8192;53.596;10.166;2024-02-28T03:51:46;3.20;99.90
16172;DHT22;8192;53.596;10.166;2024-02-28T03:54:13;3.30;99.90
16172;DHT22;8192;53.596;10.166;2024-02-28T03:56:40;3.20;99.90
16172;DHT22;8192;53.596;10.166;2024-02-28T03:59:07;3.20;99.90
16172;DHT22;8192;53.596;10.166;2024-02-28T04:01:34;3.30;99.90
16172;DHT22;8192;53.596;10.166;2024-02-28T04:04:05;3.30;99.90
16172;DHT22;8192;53.596;10.166;2024-02-28T04:06:32;3.50;99.90
16172;DHT22;8192;53.596;10.166;2024-02-28T04:08:59;3.30;99.90
16172;DHT22;8192;53.596;10.166;2024-02-28T04:11:28;3.20;99.90
16172;DHT22;8192;53.596;10.166;2024-02-28T04:13:55;3.10;99.90
16172;DHT22;8192;53.596;10.166;2024-02-28T04:16:22;3.00;99.90
16172;DHT22;8192;53.596;10.166;2024-02-28T04:18:49;3.00;99.90
16172;DHT22;8192;53.596;10.166;2024-02-28T04:21:17;3.00;99.90
16172;DHT22;8192;53.596;10.166;2024-02-28T04:23:44;3.00;99.90
16172;DHT22;8192;53.596;10.166;2024-02-28T04:26:11;3.00;99.90
16172;DHT22;8192;53.596;10.166;2024-02-28T04:28:38;3.00;99.90
16172;DHT22;8192;53.596;10.166;2024-02-28T04:31:05;3.10;99.90
16172;DHT22;8192;53.596;10.166;2024-02-28T04:33:32;3.00;99.90
16172;DHT22;8192;53.596;10.166;2024-02-28T04:35:59;3.00;99.90
16172;DHT22;8192;53.596;10.166;2024-02-28T04:38:27;3.00;99.90
16172;DHT22;8192;53.596;10.166;2024-02-28T04:40:55;3.00;99.90
16172;DHT22;8192;53.596;10.166;2024-02-28T04:43:22;3.00;99.90
16172;DHT22;8192;53.596;10.166;2024-02-28T04:45:49;3.10;99.90
16172;DHT22;8192;53.596;10.166;2024-02-28T04:48:16;3.10;99.90
16172;DHT22;8192;53.596;10.166;2024-02-28T04:50:42;3.20;99.90
16172;DHT22;8192;53.596;10.166;2024-02-28T04:53:09;3.30;99.90
16172;DHT22;8192;53.596;10.166;2024-02-28T04:55:37;3.20;99.90
16172;DHT22;8192;53.596;10.166;2024-02-28T04:58:04;3.20;99.90
16172;DHT22;8192;53.596;10.166;2024-02-28T05:00:31;3.10;99.90
16172;DHT22;8192;53.596;10.166;2024-02-28T05:02:58;3.10;99.90
16172;DHT22;8192;53.596;10.166;2024-02-28T05:05:26;3.00;99.90
16172;DHT22;8192;53.596;10.166;2024-02-28T05:07:53;3.10;99.90
16172;DHT22;8192;53.596;10.166;2024-02-28T05:10:20;3.20;99.90
16172;DHT22;8192;53.596;10.166;2024-02-28T05:12:48;3.30;99.90
16172;DHT22;8192;53.596;10.166;2024-02-28T05:15:15;3.20;99.90
16172;DHT22;8192;53.596;10.166;2024-02-28T05:17:42;3.10;99.90
16172;DHT22;8192;53.596;10.166;2024-02-28T05:20:10;3.00;99.90
16172;DHT22;8192;53.596;10.166;2024-02-28T05:22:37;3.10;99.90
16172;DHT22;8192;53.596;10.166;2024-02-28T05:25:06;3.00;99.90
16172;DHT22;8192;53.596;10.166;2024-02-28T05:27:33;3.00;99.90
16172;DHT22;8192;53.596;10.166;2024-02-28T05:30:02;2.90;99.90
16172;DHT22;8192;53.596;10.166;2024-02-28T05:32:31;2.90;99.90
16172;DHT22;8192;53.596;10.166;2024-02-28T05:34:58;3.00;99.90
16172;DHT22;8192;53.596;10.166;2024-02-28T05:37:25;3.00;99.90
16172;DHT22;8192;53.596;10.166;2024-02-28T05:39:52;2.90;99.90
16172;DHT22;8192;53.596;10.166;2024-02-28T05:42:19;2.90;99.90
16172;DHT22;8192;53.596;10.166;2024-02-28T05:44:48;2.90;99.90
16172;DHT22;8192;53.596;10.166;2024-02-28T05:47:16;3.00;99.90
16172;DHT22;8192;53.596;10.166;2024-02-28T05:49:43;2.90;99.90
16172;DHT22;8192;53.596;10.166;2024-02-28T05:52:10;2.90;99.90
16172;DHT22;8192;53.596;10.166;2024-02-28T05:54:39;2.90;99.90
16172;DHT22;8192;53.596;10.166;2024-02-28T05:57:06;2.90;99.90
16172;DHT22;8192;53.596;10.166;2024-02-28T05:59:33;2.90;99.90
16172;DHT22;8192;53.596;10.166;2024-02-28T06:02:01;2.90;99.90
16172;DHT22;8192;53.596;10.166;2024-02-28T06:04:29;2.90;99.90
16172;DHT22;8192;53.596;10.166;2024-02-28T06:06:56;3.00;99.90
16172;DHT22;8192;53.596;10.166;2024-02-28T06:09:23;3.10;99.90
16172;DHT22;8192;53.596;10.166;2024-02-28T06:11:50;3.00;99.90
16172;DHT22;8192;53.596;10.166;2024-02-28T06:14:17;3.00;99.90
16172;DHT22;8192;53.596;10.166;2024-02-28T06:16:46;3.00;99.90
16172;DHT22;8192;53.596;10.166;2024-02-28T06:19:13;3.00;99.90
16172;DHT22;8192;53.596;10.166;2024-02-28T06:21:41;3.00;99.90
16172;DHT22;8192;53.596;10.166;2024-02-28T06:24:08;3.00;99.90
16172;DHT22;8192;53.596;10.166;2024-02-28T06:26:51;3.00;99.90
16172;DHT22;8192;53.596;10.166;2024-02-28T06:29:18;3.00;99.90
16172;DHT22;8192;53.596;10.166;2024-02-28T06:31:50;3.10;99.90
16172;DHT22;8192;53.596;10.166;2024-02-28T06:34:17;3.00;99.90
16172;DHT22;8192;53.596;10.166;2024-02-28T06:36:46;3.00;99.90
16172;DHT22;8192;53.596;10.166;2024-02-28T06:39:13;3.00;99.90
16172;DHT22;8192;53.596;10.166;2024-02-28T06:41:40;3.00;99.90
16172;DHT22;8192;53.596;10.166;2024-02-28T06:44:07;3.00;99.90
16172;DHT22;8192;53.596;10.166;2024-02-28T06:46:34;3.00;99.90
16172;DHT22;8192;53.596;10.166;2024-02-28T06:49:02;3.00;99.90
16172;DHT22;8192;53.596;10.166;2024-02-28T06:51:29;3.20;99.90
16172;DHT22;8192;53.596;10.166;2024-02-28T06:53:57;3.20;99.90
16172;DHT22;8192;53.596;10.166;2024-02-28T06:56:24;3.40;99.90
16172;DHT22;8192;53.596;10.166;2024-02-28T06:58:51;3.50;99.90
16172;DHT22;8192;53.596;10.166;2024-02-28T07:01:17;3.50;99.90
16172;DHT22;8192;53.596;10.166;2024-02-28T07:03:45;3.50;99.90
16172;DHT22;8192;53.596;10.166;2024-02-28T07:06:11;3.40;99.90
16172;DHT22;8192;53.596;10.166;2024-02-28T07:08:38;3.30;99.90
16172;DHT22;8192;53.596;10.166;2024-02-28T07:11:13;3.20;99.90
16172;DHT22;8192;53.596;10.166;2024-02-28T07:13:40;3.20;99.90
16172;DHT22;8192;53.596;10.166;2024-02-28T07:16:06;3.10;99.90
16172;DHT22;8192;53.596;10.166;2024-02-28T07:18:33;3.10;99.90
16172;DHT22;8192;53.596;10.166;2024-02-28T07:21:00;3.30;99.90
16172;DHT22;8192;53.596;10.166;2024-02-28T07:23:27;3.40;99.90
16172;DHT22;8192;53.596;10.166;2024-02-28T07:25:54;3.50;99.90
16172;DHT22;8192;53.596;10.166;2024-02-28T07:28:22;3.60;99.90
16172;DHT22;8192;53.596;10.166;2024-02-28T07:30:55;3.70;99.90
16172;DHT22;8192;53.596;10.166;2024-02-28T07:33:22;3.80;99.90
16172;DHT22;8192;53.596;10.166;2024-02-28T07:35:51;3.80;99.90
16172;DHT22;8192;53.596;10.166;2024-02-28T07:38:18;3.80;99.90
16172;DHT22;8192;53.596;10.166;2024-02-28T07:40:45;3.80;99.90
16172;DHT22;8192;53.596;10.166;2024-02-28T07:43:12;3.80;99.90
16172;DHT22;8192;53.596;10.166;2024-02-28T07:45:41;3.80;99.90
16172;DHT22;8192;53.596;10.166;2024-02-28T07:48:08;4.00;99.90
16172;DHT22;8192;53.596;10.166;2024-02-28T07:50:37;4.10;99.90
16172;DHT22;8192;53.596;10.166;2024-02-28T07:53:07;4.10;99.90
16172;DHT22;8192;53.596;10.166;2024-02-28T07:55:34;4.30;99.90
16172;DHT22;8192;53.596;10.166;2024-02-28T07:58:01;4.40;99.90
16172;DHT22;8192;53.596;10.166;2024-02-28T08:00:28;4.50;99.90
16172;DHT22;8192;53.596;10.166;2024-02-28T08:02:56;4.60;99.90
16172;DHT22;8192;53.596;10.166;2024-02-28T08:05:31;4.80;99.90
16172;DHT22;8192;53.596;10.166;2024-02-28T08:08:02;5.00;99.90
16172;DHT22;8192;53.596;10.166;2024-02-28T08:10:28;5.00;99.90
16172;DHT22;8192;53.596;10.166;2024-02-28T08:12:55;4.90;99.90
16172;DHT22;8192;53.596;10.166;2024-02-28T08:15:27;4.90;99.90
16172;DHT22;8192;53.596;10.166;2024-02-28T08:17:56;4.70;99.90
16172;DHT22;8192;53.596;10.166;2024-02-28T08:20:23;4.90;99.90
16172;DHT22;8192;53.596;10.166;2024-02-28T08:22:50;5.00;99.90
16172;DHT22;8192;53.596;10.166;2024-02-28T08:25:18;5.20;99.90
16172;DHT22;8192;53.596;10.166;2024-02-28T08:27:45;5.10;99.90
16172;DHT22;8192;53.596;10.166;2024-02-28T08:30:13;5.20;99.90
16172;DHT22;8192;53.596;10.166;2024-02-28T08:32:41;5.20;99.90
16172;DHT22;8192;53.596;10.166;2024-02-28T08:35:09;5.30;99.90
16172;DHT22;8192;53.596;10.166;2024-02-28T08:37:38;5.40;99.90
16172;DHT22;8192;53.596;10.166;2024-02-28T08:40:06;5.40;99.90
16172;DHT22;8192;53.596;10.166;2024-02-28T08:42:33;5.50;99.90
16172;DHT22;8192;53.596;10.166;2024-02-28T08:45:00;5.50;99.90
16172;DHT22;8192;53.596;10.166;2024-02-28T08:47:29;5.70;99.90
16172;DHT22;8192;53.596;10.166;2024-02-28T08:49:56;5.80;99.90
16172;DHT22;8192;53.596;10.166;2024-02-28T08:52:24;5.80;99.90
16172;DHT22;8192;53.596;10.166;2024-02-28T08:54:51;6.00;99.90
16172;DHT22;8192;53.596;10.166;2024-02-28T08:57:19;6.00;99.90
16172;DHT22;8192;53.596;10.166;2024-02-28T08:59:47;6.00;99.90
16172;DHT22;8192;53.596;10.166;2024-02-28T09:02:14;5.90;99.90
16172;DHT22;8192;53.596;10.166;2024-02-28T09:04:42;5.90;99.90
16172;DHT22;8192;53.596;10.166;2024-02-28T09:07:09;5.90;99.90
16172;DHT22;8192;53.596;10.166;2024-02-28T09:09:42;6.00;99.90
16172;DHT22;8192;53.596;10.166;2024-02-28T09:12:09;5.90;99.90
16172;DHT22;8192;53.596;10.166;2024-02-28T09:14:35;5.90;99.90
16172;DHT22;8192;53.596;10.166;2024-02-28T09:17:03;5.50;99.90
16172;DHT22;8192;53.596;10.166;2024-02-28T09:19:30;5.40;99.90
16172;DHT22;8192;53.596;10.166;2024-02-28T09:21:57;5.40;99.90
16172;DHT22;8192;53.596;10.166;2024-02-28T09:24:24;5.50;99.90
16172;DHT22;8192;53.596;10.166;2024-02-28T09:26:53;5.70;99.90
16172;DHT22;8192;53.596;10.166;2024-02-28T09:29:20;5.70;99.90
16172;DHT22;8192;53.596;10.166;2024-02-28T09:31:46;5.90;99.90
16172;DHT22;8192;53.596;10.166;2024-02-28T09:34:13;6.20;99.90
16172;DHT22;8192;53.596;10.166;2024-02-28T09:36:41;6.50;99.90
16172;DHT22;8192;53.596;10.166;2024-02-28T09:39:08;6.50;99.90
16172;DHT22;8192;53.596;10.166;2024-02-28T09:41:35;6.70;99.90
16172;DHT22;8192;53.596;10.166;2024-02-28T09:44:05;7.20;99.90
16172;DHT22;8192;53.596;10.166;2024-02-28T09:46:33;7.50;99.90
16172;DHT22;8192;53.596;10.166;2024-02-28T09:49:03;7.60;99.90
16172;DHT22;8192;53.596;10.166;2024-02-28T09:51:38;7.80;99.90
16172;DHT22;8192;53.596;10.166;2024-02-28T09:54:05;7.90;99.90
16172;DHT22;8192;53.596;10.166;2024-02-28T09:56:33;7.90;99.90
16172;DHT22;8192;53.596;10.166;2024-02-28T09:59:01;7.80;99.90
16172;DHT22;8192;53.596;10.166;2024-02-28T10:01:35;7.40;99.90
16172;DHT22;8192;53.596;10.166;2024-02-28T10:04:04;7.30;99.90
16172;DHT22;8192;53.596;10.166;2024-02-28T10:06:32;7.20;99.90
16172;DHT22;8192;53.596;10.166;2024-02-28T10:08:59;7.10;99.90
16172;DHT22;8192;53.596;10.166;2024-02-28T10:11:26;7.10;99.90
16172;DHT22;8192;53.596;10.166;2024-02-28T10:13:53;7.30;99.90
16172;DHT22;8192;53.596;10.166;2024-02-28T10:16:20;7.40;99.90
16172;DHT22;8192;53.596;10.166;2024-02-28T10:18:49;7.30;99.90
16172;DHT22;8192;53.596;10.166;2024-02-28T10:21:16;7.40;99.90
16172;DHT22;8192;53.596;10.166;2024-02-28T10:23:44;7.50;99.90
16172;DHT22;8192;53.596;10.166;2024-02-28T10:26:11;7.50;99.90
16172;DHT22;8192;53.596;10.166;2024-02-28T10:28:38;7.70;99.90
16172;DHT22;8192;53.596;10.166;2024-02-28T10:31:06;7.60;99.90
16172;DHT22;8192;53.596;10.166;2024-02-28T10:33:34;7.50;99.90
16172;DHT22;8192;53.596;10.166;2024-02-28T10:36:04;7.40;99.90
16172;DHT22;8192;53.596;10.166;2024-02-28T10:38:32;7.60;99.90
16172;DHT22;8192;53.596;10.166;2024-02-28T10:41:00;7.70;99.90
16172;DHT22;8192;53.596;10.166;2024-02-28T10:43:28;7.90;99.90
16172;DHT22;8192;53.596;10.166;2024-02-28T10:45:57;7.90;99.90
16172;DHT22;8192;53.596;10.166;2024-02-28T10:48:25;7.70;99.90
16172;DHT22;8192;53.596;10.166;2024-02-28T10:50:52;7.70;99.90
16172;DHT22;8192;53.596;10.166;2024-02-28T10:53:26;7.90;99.90
16172;DHT22;8192;53.596;10.166;2024-02-28T10:56:00;8.30;99.90
16172;DHT22;8192;53.596;10.166;2024-02-28T10:58:34;8.60;99.90
16172;DHT22;8192;53.596;10.166;2024-02-28T11:01:02;9.00;99.90
16172;DHT22;8192;53.596;10.166;2024-02-28T11:03:30;9.30;99.90
16172;DHT22;8192;53.596;10.166;2024-02-28T11:05:57;9.60;99.90
16172;DHT22;8192;53.596;10.166;2024-02-28T11:08:27;9.60;99.90
16172;DHT22;8192;53.596;10.166;2024-02-28T11:10:55;9.20;99.90
16172;DHT22;8192;53.596;10.166;2024-02-28T11:13:23;9.00;99.90
16172;DHT22;8192;53.596;10.166;2024-02-28T11:15:51;9.10;99.90
16172;DHT22;8192;53.596;10.166;2024-02-28T11:18:18;8.70;99.90
16172;DHT22;8192;53.596;10.166;2024-02-28T11:20:45;8.80;99.90
16172;DHT22;8192;53.596;10.166;2024-02-28T11:23:14;8.60;99.90
16172;DHT22;8192;53.596;10.166;2024-02-28T11:25:45;8.70;99.90
16172;DHT22;8192;53.596;10.166;2024-02-28T11:28:12;8.90;99.90
16172;DHT22;8192;53.596;10.166;2024-02-28T11:30:38;9.00;99.90
16172;DHT22;8192;53.596;10.166;2024-02-28T11:33:07;9.10;99.90
16172;DHT22;8192;53.596;10.166;2024-02-28T11:35:34;9.30;99.90
16172;DHT22;8192;53.596;10.166;2024-02-28T11:38:01;9.30;99.90
16172;DHT22;8192;53.596;10.166;2024-02-28T11:40:28;9.00;99.90
16172;DHT22;8192;53.596;10.166;2024-02-28T11:42:57;8.90;99.90
16172;DHT22;8192;53.596;10.166;2024-02-28T11:45:25;9.10;99.90
16172;DHT22;8192;53.596;10.166;2024-02-28T11:47:52;9.10;99.90
16172;DHT22;8192;53.596;10.166;2024-02-28T11:50:19;9.10;99.90
16172;DHT22;8192;53.596;10.166;2024-02-28T11:52:46;9.10;99.90
16172;DHT22;8192;53.596;10.166;2024-02-28T11:55:13;9.10;99.90
16172;DHT22;8192;53.596;10.166;2024-02-28T11:57:40;9.10;99.90
16172;DHT22;8192;53.596;10.166;2024-02-28T12:00:09;9.20;99.90
16172;DHT22;8192;53.596;10.166;2024-02-28T12:02:38;9.20;99.90
16172;DHT22;8192;53.596;10.166;2024-02-28T12:05:06;9.10;99.90
16172;DHT22;8192;53.596;10.166;2024-02-28T12:07:34;9.00;99.90
16172;DHT22;8192;53.596;10.166;2024-02-28T12:10:01;8.90;99.90
16172;DHT22;8192;53.596;10.166;2024-02-28T12:12:28;9.00;99.90
16172;DHT22;8192;53.596;10.166;2024-02-28T12:14:58;9.20;99.90
16172;DHT22;8192;53.596;10.166;2024-02-28T12:17:27;9.20;99.90
16172;DHT22;8192;53.596;10.166;2024-02-28T12:19:53;8.90;99.90
16172;DHT22;8192;53.596;10.166;2024-02-28T12:22:20;8.90;99.90
16172;DHT22;8192;53.596;10.166;2024-02-28T12:24:47;8.90;99.90
16172;DHT22;8192;53.596;10.166;2024-02-28T12:27:14;9.10;99.90
16172;DHT22;8192;53.596;10.166;2024-02-28T12:29:41;9.30;99.90
16172;DHT22;8192;53.596;10.166;2024-02-28T12:32:09;9.50;99.90
16172;DHT22;8192;53.596;10.166;2024-02-28T12:34:38;9.30;99.90
16172;DHT22;8192;53.596;10.166;2024-02-28T12:37:04;9.00;99.90
16172;DHT22;8192;53.596;10.166;2024-02-28T12:39:32;9.10;99.90
16172;DHT22;8192;53.596;10.166;2024-02-28T12:41:59;9.00;99.90
16172;DHT22;8192;53.596;10.166;2024-02-28T12:44:27;8.70;99.90
16172;DHT22;8192;53.596;10.166;2024-02-28T12:46:53;8.80;99.90
16172;DHT22;8192;53.596;10.166;2024-02-28T12:49:20;8.90;99.90
16172;DHT22;8192;53.596;10.166;2024-02-28T12:51:49;8.80;99.90
16172;DHT22;8192;53.596;10.166;2024-02-28T12:54:16;8.40;99.90
16172;DHT22;8192;53.596;10.166;2024-02-28T12:56:45;8.70;99.90
16172;DHT22;8192;53.596;10.166;2024-02-28T12:59:12;8.90;99.90
16172;DHT22;8192;53.596;10.166;2024-02-28T13:01:39;8.90;99.90
16172;DHT22;8192;53.596;10.166;2024-02-28T13:04:06;8.90;99.90
16172;DHT22;8192;53.596;10.166;2024-02-28T13:06:33;8.80;99.90
16172;DHT22;8192;53.596;10.166;2024-02-28T13:09:01;8.90;99.90
16172;DHT22;8192;53.596;10.166;2024-02-28T13:11:28;9.00;99.90
16172;DHT22;8192;53.596;10.166;2024-02-28T13:13:55;9.00;99.90
16172;DHT22;8192;53.596;10.166;2024-02-28T13:16:22;8.80;99.90
16172;DHT22;8192;53.596;10.166;2024-02-28T13:18:49;8.80;99.90
16172;DHT22;8192;53.596;10.166;2024-02-28T13:21:16;8.80;99.90
16172;DHT22;8192;53.596;10.166;2024-02-28T13:23:43;8.80;99.90
16172;DHT22;8192;53.596;10.166;2024-02-28T13:26:11;8.90;99.90
16172;DHT22;8192;53.596;10.166;2024-02-28T13:28:54;8.80;99.90
16172;DHT22;8192;53.596;10.166;2024-02-28T13:31:21;8.70;99.90
16172;DHT22;8192;53.596;10.166;2024-02-28T13:37:04;8.70;99.90
16172;DHT22;8192;53.596;10.166;2024-02-28T13:39:31;8.70;99.90
16172;DHT22;8192;53.596;10.166;2024-02-28T13:45:21;8.70;99.90
16172;DHT22;8192;53.596;10.166;2024-02-28T13:50:54;9.00;99.90
16172;DHT22;8192;53.596;10.166;2024-02-28T13:53:21;9.00;99.90
16172;DHT22;8192;53.596;10.166;2024-02-28T13:55:50;9.00;99.90
16172;DHT22;8192;53.596;10.166;2024-02-28T13:58:19;8.80;99.90
16172;DHT22;8192;53.596;10.166;2024-02-28T14:00:47;8.70;99.90
16172;DHT22;8192;53.596;10.166;2024-02-28T14:03:14;8.80;99.90
16172;DHT22;8192;53.596;10.166;2024-02-28T14:05:42;8.70;99.90
16172;DHT22;8192;53.596;10.166;2024-02-28T14:08:10;8.80;99.90
16172;DHT22;8192;53.596;10.166;2024-02-28T14:10:38;9.00;99.90
16172;DHT22;8192;53.596;10.166;2024-02-28T14:13:15;9.10;99.90
16172;DHT22;8192;53.596;10.166;2024-02-28T14:15:44;9.10;99.90
16172;DHT22;8192;53.596;10.166;2024-02-28T14:18:12;9.00;99.90
16172;DHT22;8192;53.596;10.166;2024-02-28T14:20:39;9.00;99.90
16172;DHT22;8192;53.596;10.166;2024-02-28T14:23:07;8.80;99.90
16172;DHT22;8192;53.596;10.166;2024-02-28T14:25:34;8.70;99.90
16172;DHT22;8192;53.596;10.166;2024-02-28T14:28:01;8.70;99.90
16172;DHT22;8192;53.596;10.166;2024-02-28T14:30:28;8.70;99.90
16172;DHT22;8192;53.596;10.166;2024-02-28T14:32:55;9.00;99.90
16172;DHT22;8192;53.596;10.166;2024-02-28T14:35:24;8.90;99.90
16172;DHT22;8192;53.596;10.166;2024-02-28T14:37:51;9.00;99.90
16172;DHT22;8192;53.596;10.166;2024-02-28T14:40:18;8.90;99.90
16172;DHT22;8192;53.596;10.166;2024-02-28T14:42:45;8.80;99.90
16172;DHT22;8192;53.596;10.166;2024-02-28T14:45:13;8.60;99.90
16172;DHT22;8192;53.596;10.166;2024-02-28T14:47:41;8.70;99.90
16172;DHT22;8192;53.596;10.166;2024-02-28T14:50:09;8.40;99.90
16172;DHT22;8192;53.596;10.166;2024-02-28T14:52:39;8.40;99.90
16172;DHT22;8192;53.596;10.166;2024-02-28T14:55:07;8.30;99.90
16172;DHT22;8192;53.596;10.166;2024-02-28T14:57:34;8.10;99.90
16172;DHT22;8192;53.596;10.166;2024-02-28T15:00:02;8.30;99.90
16172;DHT22;8192;53.596;10.166;2024-02-28T15:02:33;8.50;99.90
16172;DHT22;8192;53.596;10.166;2024-02-28T15:05:00;8.40;99.90
16172;DHT22;8192;53.596;10.166;2024-02-28T15:07:30;8.50;99.90
16172;DHT22;8192;53.596;10.166;2024-02-28T15:09:59;8.30;99.90
16172;DHT22;8192;53.596;10.166;2024-02-28T15:12:27;8.40;99.90
16172;DHT22;8192;53.596;10.166;2024-02-28T15:14:54;8.40;99.90
16172;DHT22;8192;53.596;10.166;2024-02-28T15:17:21;8.30;99.90
16172;DHT22;8192;53.596;10.166;2024-02-28T15:19:48;8.30;99.90
16172;DHT22;8192;53.596;10.166;2024-02-28T15:22:15;8.30;99.90
16172;DHT22;8192;53.596;10.166;2024-02-28T15:24:42;8.30;99.90
16172;DHT22;8192;53.596;10.166;2024-02-28T15:27:10;8.30;99.90
16172;DHT22;8192;53.596;10.166;2024-02-28T15:29:37;8.20;99.90
16172;DHT22;8192;53.596;10.166;2024-02-28T15:32:05;8.30;99.90
16172;DHT22;8192;53.596;10.166;2024-02-28T15:34:33;8.30;99.90
16172;DHT22;8192;53.596;10.166;2024-02-28T15:37:00;8.30;99.90
16172;DHT22;8192;53.596;10.166;2024-02-28T15:39:27;8.40;99.90
16172;DHT22;8192;53.596;10.166;2024-02-28T15:41:54;8.30;99.90
16172;DHT22;8192;53.596;10.166;2024-02-28T15:44:22;8.30;99.90
16172;DHT22;8192;53.596;10.166;2024-02-28T15:46:49;8.30;99.90
16172;DHT22;8192;53.596;10.166;2024-02-28T15:49:17;8.20;99.90
16172;DHT22;8192;53.596;10.166;2024-02-28T15:51:44;8.00;99.90
16172;DHT22;8192;53.596;10.166;2024-02-28T15:54:12;7.80;99.90
16172;DHT22;8192;53.596;10.166;2024-02-28T15:56:39;7.60;99.90